Time;durP1;ratioP1;P1;durP2;ratioP2;P2;SDS_P1;SDS_P2;PMS_P1;PMS_P2;Temp;Humidity;BMP_temperature;BMP_pressure;BME280_temperature;BME280_humidity;BME280_pressure;Samples;Min_cycle;Max_cycle;Signal;HPM_P1;HPM_P2
2022/05/02 00:01:29;;;;;;;8.23;5.53;;;;;;;8.75;100.00;101404.84;5104909;28;20073;-48
2022/05/02 00:03:54;;;;;;;9.13;6.13;;;;;;;8.74;100.00;101414.59;5107734;28;20063;-46
2022/05/02 00:06:19;;;;;;;10.15;6.03;;;;;;;8.72;100.00;101406.00;5109730;28;20035;-47
2022/05/02 00:08:45;;;;;;;7.72;5.50;;;;;;;8.71;100.00;101406.16;5109929;28;20039;-48
2022/05/02 00:11:10;;;;;;;12.07;6.95;;;;;;;8.71;100.00;101403.50;5108564;28;20052;-46
2022/05/02 00:13:35;;;;;;;8.25;5.95;;;;;;;8.68;100.00;101407.28;5103384;28;20027;-49
2022/05/02 00:16:01;;;;;;;8.70;5.78;;;;;;;8.68;100.00;101396.72;5099818;28;20024;-49
2022/05/02 00:18:28;;;;;;;7.97;6.10;;;;;;;8.67;100.00;101402.13;5106343;28;20034;-50
2022/05/02 00:20:53;;;;;;;8.95;5.82;;;;;;;8.70;100.00;101399.22;5106996;28;20032;-46
2022/05/02 00:23:19;;;;;;;8.00;5.95;;;;;;;8.67;100.00;101395.06;5109333;28;20542;-50
2022/05/02 00:25:44;;;;;;;8.65;5.97;;;;;;;8.66;100.00;101397.84;5105371;28;20024;-48
2022/05/02 00:28:13;;;;;;;5.95;4.97;;;;;;;8.66;100.00;101396.03;5104021;28;20073;-47
2022/05/02 00:30:39;;;;;;;5.57;4.63;;;;;;;8.65;100.00;101391.75;5102801;28;20111;-47
2022/05/02 00:33:05;;;;;;;6.57;4.75;;;;;;;8.65;100.00;101383.00;5105005;28;20107;-50
2022/05/02 00:35:31;;;;;;;6.72;4.68;;;;;;;8.63;100.00;101396.34;5102786;28;20506;-45
2022/05/02 00:37:56;;;;;;;6.60;4.40;;;;;;;8.63;100.00;101392.88;5108508;28;20565;-49
2022/05/02 00:40:23;;;;;;;5.57;4.30;;;;;;;8.61;100.00;101392.19;5102308;28;20055;-48
2022/05/02 00:42:48;;;;;;;5.85;5.18;;;;;;;8.61;100.00;101392.19;5109438;28;20028;-48
2022/05/02 00:45:16;;;;;;;4.82;4.35;;;;;;;8.60;100.00;101390.56;5100623;28;20072;-48
2022/05/02 00:47:53;;;;;;;5.72;4.38;;;;;;;8.60;100.00;101385.28;5108025;28;20027;-48
2022/05/02 00:50:31;;;;;;;6.30;4.75;;;;;;;8.59;100.00;101386.25;5097783;28;20131;-49
2022/05/02 00:52:57;;;;;;;4.72;4.22;;;;;;;8.59;100.00;101388.88;5107149;28;20038;-47
2022/05/02 00:55:23;;;;;;;5.97;4.53;;;;;;;8.60;100.00;101390.56;5100382;28;20024;-48
2022/05/02 00:57:48;;;;;;;6.40;4.57;;;;;;;8.58;100.00;101382.78;5108139;28;20488;-47
2022/05/02 01:00:14;;;;;;;5.43;3.58;;;;;;;8.60;100.00;101386.09;5090032;28;20062;-48
2022/05/02 01:02:39;;;;;;;7.28;5.43;;;;;;;8.59;100.00;101384.41;5113637;28;20449;-47
2022/05/02 01:05:05;;;;;;;7.25;6.03;;;;;;;8.59;100.00;101379.13;5105541;28;20398;-46
2022/05/02 01:07:31;;;;;;;5.85;4.38;;;;;;;8.60;100.00;101379.97;5109487;28;20106;-50
2022/05/02 01:09:56;;;;;;;4.75;3.95;;;;;;;8.61;100.00;101381.63;5102445;28;20461;-48
2022/05/02 01:12:25;;;;;;;6.95;4.65;;;;;;;8.61;100.00;101378.97;5105995;28;20023;-48
2022/05/02 01:14:55;;;;;;;5.22;4.28;;;;;;;8.61;100.00;101381.63;5102714;28;20043;-48
2022/05/02 01:17:21;;;;;;;5.97;4.60;;;;;;;8.61;100.00;101381.63;5116235;28;20559;-46
2022/05/02 01:19:47;;;;;;;8.85;5.45;;;;;;;8.61;100.00;101386.91;5100893;28;20047;-47
2022/05/02 01:22:13;;;;;;;6.88;4.95;;;;;;;8.60;100.00;101385.28;5104898;28;20067;-50
2022/05/02 01:24:45;;;;;;;8.38;5.80;;;;;;;8.59;100.00;101383.59;5107642;28;20535;-47
2022/05/02 01:27:12;;;;;;;7.85;5.57;;;;;;;8.58;100.00;101382.78;5092739;28;20410;-49
2022/05/02 01:29:41;;;;;;;5.70;4.78;;;;;;;8.59;100.00;101384.41;5104611;28;20502;-49
2022/05/02 01:32:08;;;;;;;6.85;5.60;;;;;;;8.60;100.00;101390.56;5104377;28;20028;-48
2022/05/02 01:34:34;;;;;;;10.13;5.68;;;;;;;8.59;100.00;101384.41;5104890;28;20032;-48
2022/05/02 01:37:03;;;;;;;9.40;6.93;;;;;;;8.59;100.00;101381.78;5102829;28;20027;-45
2022/05/02 01:39:29;;;;;;;9.90;6.68;;;;;;;8.59;100.00;101383.59;5098806;28;20151;-49
2022/05/02 01:42:06;;;;;;;11.10;7.65;;;;;;;8.58;100.00;101382.78;5102366;28;20545;-49
2022/05/02 01:44:31;;;;;;;12.07;7.10;;;;;;;8.56;100.00;101382.09;5103805;28;21414;-48
2022/05/02 01:46:57;;;;;;;11.18;6.50;;;;;;;8.54;100.00;101386.69;5101291;28;20111;-52
2022/05/02 01:49:22;;;;;;;11.10;5.38;;;;;;;8.51;100.00;101385.19;5096467;28;20020;-47
2022/05/02 01:51:48;;;;;;;8.48;6.55;;;;;;;8.51;100.00;101379.91;5104659;28;20130;-49
2022/05/02 01:54:14;;;;;;;7.85;5.88;;;;;;;8.52;100.00;101378.94;5097514;28;20027;-46
2022/05/02 01:56:40;;;;;;;9.77;7.18;;;;;;;8.52;100.00;101384.22;5094448;28;20032;-46
2022/05/02 01:59:05;;;;;;;10.68;7.93;;;;;;;8.52;100.00;101386.03;5100174;28;20028;-45
2022/05/02 02:01:31;;;;;;;11.27;7.65;;;;;;;8.51;100.00;101382.53;5104368;28;20051;-49
2022/05/02 02:03:59;;;;;;;11.38;8.40;;;;;;;8.49;100.00;101386.34;5107779;28;20027;-47
2022/05/02 02:06:24;;;;;;;10.52;7.53;;;;;;;8.48;100.00;101382.88;5104402;28;20034;-48
2022/05/02 02:08:50;;;;;;;9.68;7.60;;;;;;;8.50;100.00;101383.53;5108341;28;20468;-46
2022/05/02 02:11:16;;;;;;;13.25;9.15;;;;;;;8.48;100.00;101377.56;5110145;28;20066;-49
2022/05/02 02:13:41;;;;;;;12.07;7.25;;;;;;;8.46;100.00;101390.13;5105182;28;20032;-47
2022/05/02 02:16:10;;;;;;;14.50;9.55;;;;;;;8.42;100.00;101383.50;5107546;28;20110;-48
2022/05/02 02:18:41;;;;;;;15.77;10.48;;;;;;;8.39;100.00;101377.63;5110920;28;20358;-49
2022/05/02 02:21:09;;;;;;;17.47;10.23;;;;;;;8.38;100.00;101376.81;5107652;28;20106;-45
2022/05/02 02:23:36;;;;;;;16.45;11.30;;;;;;;8.38;100.00;101382.09;5092221;28;20135;-45
2022/05/02 02:26:04;;;;;;;15.82;10.30;;;;;;;8.39;100.00;101382.94;5099157;28;20070;-47
2022/05/02 02:28:29;;;;;;;13.27;8.63;;;;;;;8.39;100.00;101378.53;5110602;28;20061;-52
2022/05/02 02:30:54;;;;;;;16.75;10.50;;;;;;;8.39;100.00;101378.53;5107462;28;20453;-51
2022/05/02 02:33:20;;;;;;;15.75;10.77;;;;;;;8.37;100.00;101377.81;5106049;28;20481;-46
2022/05/02 02:35:46;;;;;;;14.65;9.60;;;;;;;8.39;100.00;101380.28;5104009;28;20035;-47
2022/05/02 02:38:12;;;;;;;16.05;10.30;;;;;;;8.41;100.00;101378.34;5107349;28;20456;-46
2022/05/02 02:40:39;;;;;;;22.20;11.35;;;;;;;8.43;100.00;101374.56;5103799;28;20499;-48
2022/05/02 02:43:06;;;;;;;21.05;13.55;;;;;;;8.39;100.00;101377.63;5110905;28;20047;-47
2022/05/02 02:45:31;;;;;;;20.77;11.90;;;;;;;8.34;100.00;101383.41;5109447;28;20120;-45
2022/05/02 02:47:57;;;;;;;18.15;10.85;;;;;;;8.36;100.00;101378.78;5095395;28;20436;-46
2022/05/02 02:50:22;;;;;;;16.90;10.82;;;;;;;8.37;100.00;101377.81;5110399;28;20040;-47
2022/05/02 02:52:47;;;;;;;16.15;9.75;;;;;;;8.36;100.00;101368.22;5109895;28;20111;-50
2022/05/02 02:55:13;;;;;;;14.27;9.85;;;;;;;8.36;100.00;101373.50;5101988;28;20063;-49
2022/05/02 02:57:38;;;;;;;19.95;12.25;;;;;;;8.35;100.00;101366.56;5112291;28;20027;-47
2022/05/02 03:00:07;;;;;;;15.43;10.27;;;;;;;8.34;100.00;101370.19;5103519;28;20031;-46
2022/05/02 03:02:33;;;;;;;16.88;10.73;;;;;;;8.33;100.00;101368.53;5115687;28;20035;-45
2022/05/02 03:07:42;;;;;;;18.33;10.38;;;;;;;8.31;100.00;101365.19;5104861;28;20046;-48
2022/05/02 03:10:08;;;;;;;16.42;10.00;;;;;;;8.28;100.00;101361.06;5109963;28;20118;-48
2022/05/02 03:12:33;;;;;;;16.02;9.82;;;;;;;8.26;100.00;101359.53;5112725;28;20019;-46
2022/05/02 03:14:58;;;;;;;13.52;8.93;;;;;;;8.26;100.00;101363.03;5095477;28;20366;-46
2022/05/02 03:17:24;;;;;;;15.70;9.52;;;;;;;8.30;100.00;101358.25;5091918;28;20034;-49
2022/05/02 03:19:49;;;;;;;14.20;8.15;;;;;;;8.29;100.00;101361.91;5103667;28;20024;-50
2022/05/02 03:22:15;;;;;;;16.05;10.60;;;;;;;8.28;100.00;101363.69;5106515;28;20262;-48
2022/05/02 03:24:40;;;;;;;19.17;11.10;;;;;;;8.29;100.00;101361.91;5111583;28;20032;-46
2022/05/02 03:27:05;;;;;;;18.38;11.18;;;;;;;8.28;100.00;101358.41;5099000;28;20035;-47
2022/05/02 03:29:31;;;;;;;18.58;11.30;;;;;;;8.30;100.00;101353.81;5105869;28;20024;-51
2022/05/02 03:31:56;;;;;;;17.80;10.65;;;;;;;8.30;100.00;101359.09;5072444;28;20578;-45
2022/05/02 03:34:21;;;;;;;16.05;10.90;;;;;;;8.29;100.00;101359.25;5101140;28;20400;-50
2022/05/02 03:36:47;;;;;;;20.48;12.88;;;;;;;8.29;100.00;101361.91;5100789;28;20038;-49
2022/05/02 03:39:12;;;;;;;20.67;12.45;;;;;;;8.30;100.00;101358.25;5112791;28;20023;-48
2022/05/02 03:41:38;;;;;;;20.05;12.55;;;;;;;8.26;100.00;101367.47;5106356;28;20043;-50
2022/05/02 03:44:03;;;;;;;20.67;13.35;;;;;;;8.23;100.00;101360.69;5109626;28;20035;-47
2022/05/02 03:46:28;;;;;;;23.10;12.40;;;;;;;8.22;100.00;101361.69;5094830;28;20370;-46
2022/05/02 03:48:54;;;;;;;18.85;11.00;;;;;;;8.20;100.00;101360.19;5093136;28;20028;-50
2022/05/02 03:51:20;;;;;;;19.52;11.90;;;;;;;8.16;100.00;101358.81;5093487;28;20031;-52
2022/05/02 03:53:45;;;;;;;23.73;14.63;;;;;;;8.15;100.00;101362.44;5110255;28;20070;-50
2022/05/02 03:56:10;;;;;;;23.23;12.75;;;;;;;8.15;100.00;101365.09;5107009;28;20110;-48
2022/05/02 03:58:36;;;;;;;21.90;13.02;;;;;;;8.11;100.00;101354.00;5105003;28;20434;-46
2022/05/02 04:01:01;;;;;;;21.55;12.20;;;;;;;8.11;100.00;101358.47;5092956;28;20039;-47
2022/05/02 04:03:27;;;;;;;20.35;11.27;;;;;;;8.14;100.00;101363.44;5103919;28;20080;-47
2022/05/02 04:05:52;;;;;;;21.05;11.88;;;;;;;8.14;100.00;101355.50;5103523;28;20262;-49
2022/05/02 04:08:18;;;;;;;19.83;11.85;;;;;;;8.11;100.00;101359.28;5100723;28;20462;-45
2022/05/02 04:10:43;;;;;;;20.35;12.60;;;;;;;8.10;100.00;101357.63;5100499;28;20023;-48
2022/05/02 04:13:09;;;;;;;20.02;12.63;;;;;;;8.11;100.00;101359.28;5099251;28;20036;-50
2022/05/02 04:15:35;;;;;;;18.80;10.48;;;;;;;8.11;100.00;101359.28;5094708;28;20034;-52
2022/05/02 04:18:00;;;;;;;20.35;13.00;;;;;;;8.11;100.00;101355.84;5103344;28;20118;-48
2022/05/02 04:20:25;;;;;;;22.70;11.98;;;;;;;8.12;100.00;101360.13;5096634;28;20115;-49
2022/05/02 04:22:51;;;;;;;18.23;10.93;;;;;;;8.11;100.00;101363.75;5107867;28;20242;-46
2022/05/02 04:25:16;;;;;;;18.85;10.82;;;;;;;8.14;100.00;101353.69;5095283;28;20570;-50
2022/05/02 04:27:43;;;;;;;21.63;12.55;;;;;;;8.13;100.00;101359.13;5119784;28;20042;-50
2022/05/02 04:30:10;;;;;;;17.77;11.90;;;;;;;8.13;100.00;101351.19;5112404;27;20092;-45
2022/05/02 04:32:35;;;;;;;18.85;10.90;;;;;;;8.14;100.00;101358.16;5104239;28;20036;-50
2022/05/02 04:35:02;;;;;;;17.52;11.18;;;;;;;8.12;100.00;101355.66;5102216;28;20533;-50
2022/05/02 04:37:28;;;;;;;20.42;11.93;;;;;;;8.14;100.00;101352.88;5110526;28;20028;-50
2022/05/02 04:39:53;;;;;;;16.58;9.52;;;;;;;8.14;100.00;101358.16;5104019;28;20031;-46
2022/05/02 04:42:18;;;;;;;23.05;12.82;;;;;;;8.12;100.00;101355.66;5100971;28;20111;-49
2022/05/02 04:44:44;;;;;;;20.95;11.73;;;;;;;8.13;100.00;101359.13;5090693;28;20071;-49
2022/05/02 04:47:09;;;;;;;20.75;11.88;;;;;;;8.11;100.00;101348.72;5109463;28;20059;-47
2022/05/02 04:49:35;;;;;;;21.88;12.40;;;;;;;8.12;100.00;101355.66;5109533;28;20038;-50
2022/05/02 04:52:00;;;;;;;22.98;12.27;;;;;;;8.11;100.00;101355.84;5105332;28;20095;-45
2022/05/02 04:54:26;;;;;;;21.13;12.95;;;;;;;8.09;100.00;101359.44;5086793;28;20031;-47
2022/05/02 04:56:51;;;;;;;19.33;11.25;;;;;;;8.10;100.00;101360.25;5114008;28;20079;-49
2022/05/02 04:59:17;;;;;;;17.15;10.13;;;;;;;8.11;100.00;101361.13;5104435;28;20108;-48
2022/05/02 05:01:42;;;;;;;23.83;13.30;;;;;;;8.15;100.00;101354.53;5108952;28;20040;-45
2022/05/02 05:04:09;;;;;;;18.88;11.90;;;;;;;8.17;100.00;101366.59;5107646;28;20036;-47
2022/05/02 05:06:34;;;;;;;21.45;12.25;;;;;;;8.18;100.00;101362.97;5110986;28;20027;-45
2022/05/02 05:09:00;;;;;;;21.98;12.98;;;;;;;8.19;100.00;101366.44;5094238;28;20103;-47
2022/05/02 05:11:47;;;;;;;21.05;12.27;;;;;;;8.20;100.00;101368.09;5103338;28;20038;-46
2022/05/02 05:17:21;;;;;;;23.40;13.55;;;;;;;8.22;100.00;101368.78;5093461;28;20031;-48
2022/05/02 05:20:13;;;;;;;18.85;12.73;;;;;;;8.22;100.00;101364.31;5102686;28;20040;-50
2022/05/02 05:22:51;;;;;;;20.95;12.00;;;;;;;8.23;100.00;101370.44;5109808;28;20037;-46
2022/05/02 05:25:38;;;;;;;22.90;11.30;;;;;;;8.25;100.00;101373.75;5117170;28;20030;-48
2022/05/02 05:28:13;;;;;;;18.02;9.57;;;;;;;8.31;100.00;101370.47;5093483;28;20032;-46
2022/05/02 05:30:43;;;;;;;18.48;10.23;;;;;;;8.35;100.00;101374.50;5100439;28;20044;-50
2022/05/02 05:33:14;;;;;;;23.40;14.30;;;;;;;8.38;100.00;101368.88;5089613;28;20078;-47
2022/05/02 05:36:13;;;;;;;19.33;11.38;;;;;;;8.45;100.00;101369.16;5088620;28;20035;-46
2022/05/02 05:38:51;;;;;;;16.65;10.70;;;;;;;8.49;100.00;101368.69;5084352;28;20032;-51
2022/05/02 05:41:59;;;;;;;23.13;12.27;;;;;;;8.55;100.00;101379.63;5087479;28;20020;-49
2022/05/02 05:45:03;;;;;;;20.77;12.52;;;;;;;8.59;100.00;101378.31;5083369;28;20063;-47
2022/05/02 05:47:31;;;;;;;23.08;11.10;;;;;;;8.60;100.00;101375.53;5085894;28;20039;-48
2022/05/02 05:50:18;;;;;;;17.67;11.40;;;;;;;8.63;100.00;101382.31;5092765;28;20036;-52
2022/05/02 05:52:59;;;;;;;22.33;12.43;;;;;;;8.64;100.00;101378.66;5089969;28;20032;-46
2022/05/02 05:55:30;;;;;;;21.87;12.67;;;;;;;8.66;100.00;101380.16;5090054;28;20504;-47
2022/05/02 05:58:14;;;;;;;21.67;12.38;;;;;;;8.68;100.00;101378.19;5086762;28;20035;-46
2022/05/02 06:00:50;;;;;;;23.80;12.57;;;;;;;8.69;100.00;101374.56;5091418;28;20111;-49
2022/05/02 06:03:17;;;;;;;23.77;14.68;;;;;;;8.70;100.00;101378.06;5094636;28;20778;-46
2022/05/02 06:05:45;;;;;;;23.02;12.32;;;;;;;8.73;100.00;101377.75;5097437;28;20392;-49
2022/05/02 06:08:18;;;;;;;23.83;12.57;;;;;;;8.75;100.00;101378.38;5089198;28;20027;-49
2022/05/02 06:10:46;;;;;;;23.77;12.10;;;;;;;8.81;100.00;101384.88;5089743;28;20043;-46
2022/05/02 06:13:15;;;;;;;16.23;10.48;;;;;;;8.86;100.00;101385.25;5071245;28;20036;-49
2022/05/02 06:18:35;;;;;;;17.60;11.55;;;;;;;8.95;100.00;101387.75;5094306;28;20035;-49
2022/05/02 06:21:05;;;;;;;22.55;13.25;;;;;;;9.00;100.00;101386.47;5099832;28;20028;-50
2022/05/02 06:23:42;;;;;;;21.38;11.68;;;;;;;9.00;100.00;101391.75;5101294;28;20036;-48
2022/05/02 06:26:09;;;;;;;24.85;13.13;;;;;;;9.00;100.00;101386.47;5090749;28;20414;-47
2022/05/02 06:28:44;;;;;;;20.77;11.45;;;;;;;9.04;100.00;101390.47;5097997;28;20036;-46
2022/05/02 06:31:26;;;;;;;17.52;11.70;;;;;;;9.13;100.00;101389.50;5092398;28;20488;-47
2022/05/02 06:33:52;;;;;;;;;;;;;;;9.23;100.00;101394.66;5098048;28;20035;-47
2022/05/02 06:36:51;;;;;;;16.83;9.23;;;;;;;9.32;100.00;101391.88;5091259;28;19943;-48
2022/05/02 06:39:16;;;;;;;15.90;9.52;;;;;;;9.38;100.00;101390.41;5089033;28;20138;-49
2022/05/02 06:42:17;;;;;;;16.58;9.93;;;;;;;9.45;100.00;101390.56;5089620;28;20540;-48
2022/05/02 06:44:50;;;;;;;18.42;10.65;;;;;;;9.55;100.00;101392.13;5089895;28;20048;-50
2022/05/02 06:47:34;;;;;;;18.77;11.68;;;;;;;9.64;100.00;101387.66;5081015;28;20032;-46
2022/05/02 06:50:02;;;;;;;14.77;9.77;;;;;;;9.68;100.00;101391.66;5087927;28;20036;-48
2022/05/02 06:52:38;;;;;;;19.38;11.73;;;;;;;9.76;100.00;101388.19;5092801;28;20039;-46
2022/05/02 06:55:10;;;;;;;14.88;9.05;;;;;;;9.96;100.00;101393.97;5096109;28;20057;-50
2022/05/02 06:57:53;;;;;;;18.95;11.75;;;;;;;10.00;100.00;101388.19;5101052;28;20043;-49
2022/05/02 07:00:19;;;;;;;14.88;9.50;;;;;;;10.06;100.00;101384.06;5095164;28;20032;-48
2022/05/02 07:02:56;;;;;;;19.48;11.13;;;;;;;10.15;100.00;101390.19;5103437;28;20480;-49
2022/05/02 07:05:27;;;;;;;16.60;10.48;;;;;;;10.22;100.00;101378.78;5096847;28;20122;-47
2022/05/02 07:08:03;;;;;;;16.77;10.50;;;;;;;10.28;100.00;101376.47;5097223;28;20375;-46
2022/05/02 07:10:33;;;;;;;16.73;10.73;;;;;;;10.29;100.00;101376.28;5095127;28;20036;-51
2022/05/02 07:13:17;;;;;;;15.23;10.13;;;;;;;10.30;100.00;101385.06;5105685;28;20040;-47
2022/05/02 07:15:42;;;;;;;15.27;9.07;;;;;;;10.35;100.00;101383.59;5098625;28;20134;-50
2022/05/02 07:18:17;;;;;;;14.88;8.52;;;;;;;10.38;100.00;101382.44;5095635;28;20551;-51
2022/05/02 07:20:52;;;;;;;16.52;10.43;;;;;;;10.52;100.00;101381.72;5095792;28;20024;-49
2022/05/02 07:23:57;;;;;;;15.05;9.38;;;;;;;10.63;100.00;101383.19;5084684;28;20496;-48
2022/05/02 07:26:24;;;;;;;8.88;6.78;;;;;;;10.79;100.00;101382.31;5095691;28;20272;-48
2022/05/02 07:28:51;;;;;;;13.75;9.07;;;;;;;10.87;100.00;101379.69;5097041;28;20027;-49
2022/05/02 07:31:18;;;;;;;15.57;9.15;;;;;;;10.92;100.00;101374.69;5096955;28;20047;-48
2022/05/02 07:33:47;;;;;;;12.52;8.00;;;;;;;11.13;100.00;101372.25;5098552;28;20039;-48
2022/05/02 07:36:18;;;;;;;13.52;9.13;;;;;;;11.18;100.00;101368.25;5096811;28;20061;-51
2022/05/02 07:39:05;;;;;;;16.27;10.57;;;;;;;11.08;100.00;101374.59;5096336;28;20043;-48
2022/05/02 07:41:31;;;;;;;12.25;9.00;;;;;;;11.09;100.00;101373.59;5094292;28;20040;-46
2022/05/02 07:44:08;;;;;;;13.50;8.50;;;;;;;11.23;100.00;101372.06;5095464;28;20035;-45
2022/05/02 07:46:44;;;;;;;9.98;6.95;;;;;;;11.34;100.00;101376.97;5094648;28;20452;-47
2022/05/02 07:49:13;;;;;;;12.32;7.35;;;;;;;11.50;100.00;101373.41;5095395;28;20412;-49
2022/05/02 07:51:47;;;;;;;10.32;7.65;;;;;;;11.64;100.00;101368.31;5094692;28;20043;-51
2022/05/02 07:54:20;;;;;;;11.88;8.38;;;;;;;11.76;100.00;101373.06;5088612;28;20053;-46
2022/05/02 07:56:47;;;;;;;14.77;8.77;;;;;;;11.88;100.00;101365.53;5101818;28;20088;-48
2022/05/02 07:59:15;;;;;;;15.68;10.63;;;;;;;11.88;100.00;101367.38;5093811;28;20485;-48
2022/05/02 08:01:40;;;;;;;14.18;7.63;;;;;;;11.91;100.00;101364.34;5097429;28;20023;-48
2022/05/02 08:04:05;;;;;;;11.27;7.43;;;;;;;11.90;100.00;101366.19;5097923;28;20148;-51
2022/05/02 08:06:36;;;;;;;14.02;9.65;;;;;;;11.96;100.00;101372.63;5091655;28;20027;-50
2022/05/02 08:09:16;;;;;;;13.45;8.20;;;;;;;11.99;100.00;101367.75;5089482;28;20027;-51
2022/05/02 08:11:58;;;;;;;16.92;8.55;;;;;;;12.16;100.00;101375.63;5092162;28;20475;-49
2022/05/02 08:14:57;;;;;;;12.02;7.97;;;;;;;12.25;100.00;101369.22;5099170;28;20416;-49
2022/05/02 08:17:41;;;;;;;11.98;8.27;;;;;;;12.23;100.00;101363.25;5094903;28;20039;-48
2022/05/02 08:20:18;;;;;;;13.88;9.38;;;;;;;12.47;100.00;101377.31;5096761;28;20058;-49
2022/05/02 08:29:10;;;;;;;12.02;8.27;;;;;;;12.55;100.00;101374.59;5093491;28;20038;-49
2022/05/02 08:32:02;;;;;;;9.27;6.53;;;;;;;12.80;100.00;101380.44;5051001;28;20060;-52
2022/05/02 08:34:36;;;;;;;;;;;;;;;12.87;100.00;101366.22;5094679;28;20393;-50
2022/05/02 08:37:36;;;;;;;9.07;6.45;;;;;;;12.98;100.00;101369.44;5092751;28;20428;-47
2022/05/02 08:40:04;;;;;;;10.15;6.65;;;;;;;13.30;100.00;101374.38;5099738;28;20479;-50
2022/05/02 08:42:47;;;;;;;11.55;7.60;;;;;;;13.51;100.00;101372.78;5094428;28;20043;-47
2022/05/02 08:45:36;;;;;;;10.30;6.78;;;;;;;13.59;100.00;101372.66;5081768;28;20147;-47
2022/05/02 08:48:39;;;;;;;11.32;7.68;;;;;;;13.79;100.00;101364.03;5094837;28;20593;-47
2022/05/02 08:51:05;;;;;;;11.18;6.50;;;;;;;13.93;100.00;101366.63;5093994;28;20421;-51
2022/05/02 08:54:11;;;;;;;9.40;7.53;;;;;;;13.78;100.00;101367.69;5092055;28;21199;-46
2022/05/02 08:57:16;;;;;;;8.60;5.75;;;;;;;13.61;100.00;101362.63;5035732;28;20029;-46
2022/05/02 09:00:05;;;;;;;11.27;8.90;;;;;;;13.22;100.00;101358.47;5090053;28;20047;-47
2022/05/02 09:02:52;;;;;;;12.13;7.18;;;;;;;13.09;100.00;101358.34;5093196;28;20139;-47
2022/05/02 09:06:05;;;;;;;9.70;7.07;;;;;;;13.12;100.00;101368.59;5090076;28;20140;-49
2022/05/02 09:08:50;;;;;;;10.35;7.00;;;;;;;13.15;100.00;101367.41;5000318;28;20034;-46
2022/05/02 09:11:42;;;;;;;8.30;5.97;;;;;;;13.09;100.00;101366.31;5089418;28;20028;-52
2022/05/02 09:14:19;;;;;;;7.28;4.97;;;;;;;13.04;100.00;101360.72;5082688;28;20044;-48
2022/05/02 09:17:06;;;;;;;7.90;5.95;;;;;;;12.93;100.00;101362.00;5096011;28;20039;-48
2022/05/02 09:19:34;;;;;;;6.55;4.97;;;;;;;12.92;100.00;101363.00;5091396;28;20028;-50
2022/05/02 09:22:18;;;;;;;8.70;6.65;;;;;;;12.92;100.00;101367.53;5073769;28;20038;-49
2022/05/02 09:24:55;;;;;;;9.13;6.45;;;;;;;12.97;100.00;101365.94;5087603;28;20043;-51
2022/05/02 09:27:48;;;;;;;9.90;6.50;;;;;;;13.01;100.00;101369.91;5088712;28;20410;-48
2022/05/02 09:30:33;;;;;;;8.50;5.95;;;;;;;13.11;100.00;101369.59;5073473;28;20055;-46
2022/05/02 09:33:24;;;;;;;8.27;6.63;;;;;;;13.22;100.00;101368.31;5090937;28;20032;-51
2022/05/02 09:35:54;;;;;;;;;;;;;;;13.24;100.00;101364.47;5092195;28;20103;-46
2022/05/02 09:38:29;;;;;;;10.82;6.20;;;;;;;13.29;100.00;101363.91;5095581;28;19923;-49
2022/05/02 09:41:14;;;;;;;12.20;7.72;;;;;;;13.22;100.00;101363.00;5090559;28;20088;-50
2022/05/02 09:50:01;;;;;;;8.02;6.55;;;;;;;12.87;100.00;101360.91;5098680;28;20131;-48
2022/05/02 09:52:50;;;;;;;8.77;6.43;;;;;;;12.73;100.00;101368.91;5092110;28;20110;-48
2022/05/02 09:58:35;;;;;;;8.40;5.57;;;;;;;12.44;100.00;101371.38;5103536;28;20138;-48
2022/05/02 10:01:06;;;;;;;9.20;6.07;;;;;;;12.31;100.00;101378.28;5095709;28;20119;-48
2022/05/02 10:03:38;;;;;;;10.13;6.97;;;;;;;12.12;100.00;101377.78;5089651;28;20414;-48
2022/05/02 10:06:16;;;;;;;8.07;6.30;;;;;;;11.99;100.00;101381.06;5096471;28;20028;-51
2022/05/02 10:08:49;;;;;;;8.73;6.95;;;;;;;12.08;100.00;101378.31;5088069;28;20044;-47
2022/05/02 10:11:25;;;;;;;10.18;5.90;;;;;;;12.18;100.00;101376.25;5088862;28;20034;-45
2022/05/02 10:14:12;;;;;;;10.85;6.72;;;;;;;12.23;100.00;101379.19;5087499;28;20040;-46
2022/05/02 10:16:56;;;;;;;8.55;6.20;;;;;;;12.28;100.00;101371.50;5091767;28;20206;-47
2022/05/02 10:19:43;;;;;;;10.25;5.80;;;;;;;12.47;100.00;101371.97;5095554;28;20190;-48
2022/05/02 10:22:23;;;;;;;8.40;5.38;;;;;;;12.86;100.00;101369.91;5095707;28;20062;-51
2022/05/02 10:24:57;;;;;;;6.80;4.80;;;;;;;13.20;100.00;101365.00;5084556;28;20036;-49
2022/05/02 10:27:36;;;;;;;7.93;5.68;;;;;;;13.37;100.00;101368.28;5085846;28;20028;-46
2022/05/02 10:30:07;;;;;;;8.15;5.60;;;;;;;13.58;100.00;101362.16;5087073;28;20074;-45
2022/05/02 10:32:43;;;;;;;9.20;6.65;;;;;;;13.79;100.00;101372.84;5103890;28;20055;-47
2022/05/02 10:35:17;;;;;;;8.98;6.53;;;;;;;14.01;100.00;101368.31;5102581;28;20036;-48
2022/05/02 10:37:53;;;;;;;6.95;5.13;;;;;;;14.17;100.00;101370.72;5109825;28;20144;-46
2022/05/02 10:40:28;;;;;;;8.77;5.70;;;;;;;14.24;100.00;101367.28;5103931;28;20380;-46
2022/05/02 10:42:57;;;;;;;7.30;4.95;;;;;;;14.23;100.00;101366.47;5107645;28;20492;-48
2022/05/02 10:45:26;;;;;;;8.05;6.43;;;;;;;14.31;100.00;101360.16;5098428;28;20412;-48
2022/05/02 10:47:59;;;;;;;11.50;7.55;;;;;;;14.51;100.00;101363.78;5093617;28;20043;-49
2022/05/02 10:50:32;;;;;;;8.30;5.85;;;;;;;14.56;100.00;101356.06;5093553;28;20027;-51
2022/05/02 10:53:45;;;;;;;5.75;5.18;;;;;;;14.58;100.00;101354.00;5090348;28;20043;-50
2022/05/02 10:56:31;;;;;;;9.60;6.13;;;;;;;14.58;100.00;101359.34;5021026;28;20025;-47
2022/05/02 10:59:01;;;;;;;9.55;7.15;;;;;;;14.37;100.00;101354.03;5016955;28;20403;-49
2022/05/02 11:01:35;;;;;;;9.27;6.30;;;;;;;13.92;100.00;101353.50;5077730;28;20044;-47
2022/05/02 11:04:22;;;;;;;7.13;4.82;;;;;;;13.72;100.00;101358.63;5096557;28;20184;-47
2022/05/02 11:07:08;;;;;;;5.65;4.40;;;;;;;13.84;100.00;101366.97;5091503;28;20047;-49
2022/05/02 11:09:39;;;;;;;8.10;6.07;;;;;;;13.77;100.00;101361.56;5098411;28;20047;-47
2022/05/02 11:12:11;;;;;;;10.20;6.10;;;;;;;13.57;100.00;101350.69;5079392;28;20028;-48
2022/05/02 11:14:51;;;;;;;8.25;5.65;;;;;;;13.78;100.00;101352.53;5091052;28;20058;-47
2022/05/02 11:17:37;;;;;;;7.85;5.97;;;;;;;14.05;100.00;101350.13;5100816;28;20035;-49
2022/05/02 11:23:18;;;;;;;7.57;4.70;;;;;;;14.12;100.00;101353.63;5104274;28;20043;-47
2022/05/02 11:25:58;;;;;;;7.90;5.47;;;;;;;14.12;100.00;101342.97;5093427;28;20032;-50
2022/05/02 11:28:38;;;;;;;10.23;5.82;;;;;;;14.06;100.00;101352.56;5099546;28;20093;-49
2022/05/02 11:31:17;;;;;;;7.20;5.13;;;;;;;13.87;100.00;101359.38;5098230;28;20055;-51
2022/05/02 11:34:06;;;;;;;10.52;5.43;;;;;;;13.92;100.00;101353.50;5095562;28;20128;-47
2022/05/02 11:36:35;;;;;;;7.55;4.75;;;;;;;13.97;100.00;101351.06;5098411;28;20372;-49
2022/05/02 11:39:07;;;;;;;8.68;4.57;;;;;;;13.95;100.00;101348.59;5098385;28;20028;-45
2022/05/02 11:41:39;;;;;;;6.18;5.03;;;;;;;14.08;100.00;101342.53;5101797;28;20420;-49
2022/05/02 11:44:13;;;;;;;7.35;4.72;;;;;;;14.33;100.00;101337.59;5079816;28;20036;-48
2022/05/02 11:46:59;;;;;;;6.53;4.57;;;;;;;14.21;100.00;101341.00;5097652;28;20027;-46
2022/05/02 11:49:27;;;;;;;7.75;4.22;;;;;;;14.05;100.00;101342.13;5096822;28;20035;-46
2022/05/02 11:51:53;;;;;;;7.43;4.75;;;;;;;14.05;100.00;101342.94;5094107;28;20036;-48
2022/05/02 11:54:27;;;;;;;7.80;4.60;;;;;;;14.40;100.00;101338.47;5092705;28;20044;-48
2022/05/02 11:57:26;;;;;;;7.25;3.80;;;;;;;14.51;100.00;101342.44;5097711;28;20383;-49
2022/05/02 12:00:05;;;;;;;6.10;4.72;;;;;;;14.52;100.00;101332.59;5091816;28;20400;-47
2022/05/02 12:02:37;;;;;;;7.72;5.38;;;;;;;14.35;100.00;101338.25;5099685;28;20024;-48
2022/05/02 12:05:17;;;;;;;7.18;4.53;;;;;;;14.25;100.00;101332.44;5099508;28;20469;-48
2022/05/02 12:07:51;;;;;;;5.30;4.60;;;;;;;14.47;100.00;101330.50;5103170;28;20044;-48